Terminal Aerodrome Forecast
Issued by NWS

Home | Current Version | Previous Version | Text Only | Print | Product List | Glossary On
Versions: 1 2 3 4 5 6 7 8 9 10 11 12 13
000
FTUS43 KILX 260535
TAFDEC
TAF
KDEC 260535Z 2606/2706 17011KT P6SM SCT080 BKN200
     FM261400 19015G23KT P6SM VCSH OVC050
     FM262000 19013KT 6SM SHRA VCTS SCT015 OVC025CB
     FM262300 20008KT 3SM +SHRA BR VCTS OVC015CB
     FM270300 24006KT 3SM SHRA BR OVC008=

USA.gov is the U.S. government's official web portal to all federal, state and local government web resources and services.